sensor_id;sensor_type;location;lat;lon;timestamp;P1;durP1;ratioP1;P2;durP2;ratioP2
52072;SDS011;38074;51.232;6.826;2023-04-06T00:05:07;3.58;;;1.20;;
52072;SDS011;38074;51.232;6.826;2023-04-06T00:12:23;4.00;;;1.80;;
52072;SDS011;38074;51.232;6.826;2023-04-06T00:19:39;2.15;;;1.25;;
52072;SDS011;38074;51.232;6.826;2023-04-06T00:26:54;1.20;;;0.90;;
52072;SDS011;38074;51.232;6.826;2023-04-06T00:34:10;4.30;;;1.37;;
52072;SDS011;38074;51.232;6.826;2023-04-06T00:41:25;3.10;;;1.00;;
52072;SDS011;38074;51.232;6.826;2023-04-06T00:48:41;2.57;;;0.97;;
52072;SDS011;38074;51.232;6.826;2023-04-06T00:55:56;2.40;;;1.20;;
52072;SDS011;38074;51.232;6.826;2023-04-06T01:03:12;1.83;;;1.17;;
52072;SDS011;38074;51.232;6.826;2023-04-06T01:10:28;1.83;;;1.17;;
52072;SDS011;38074;51.232;6.826;2023-04-06T01:17:43;1.75;;;1.10;;
52072;SDS011;38074;51.232;6.826;2023-04-06T01:24:59;2.15;;;1.10;;
52072;SDS011;38074;51.232;6.826;2023-04-06T01:32:15;1.93;;;1.03;;
52072;SDS011;38074;51.232;6.826;2023-04-06T01:39:30;1.77;;;0.90;;
52072;SDS011;38074;51.232;6.826;2023-04-06T01:46:46;2.07;;;1.00;;
52072;SDS011;38074;51.232;6.826;2023-04-06T01:54:01;2.30;;;1.10;;
52072;SDS011;38074;51.232;6.826;2023-04-06T02:01:17;2.45;;;1.00;;
52072;SDS011;38074;51.232;6.826;2023-04-06T02:08:33;1.90;;;1.07;;
52072;SDS011;38074;51.232;6.826;2023-04-06T02:15:48;1.90;;;1.07;;
52072;SDS011;38074;51.232;6.826;2023-04-06T02:23:03;1.53;;;0.90;;
52072;SDS011;38074;51.232;6.826;2023-04-06T02:30:19;1.73;;;1.10;;
52072;SDS011;38074;51.232;6.826;2023-04-06T02:37:34;2.23;;;0.90;;
52072;SDS011;38074;51.232;6.826;2023-04-06T02:44:50;3.33;;;1.70;;
52072;SDS011;38074;51.232;6.826;2023-04-06T02:52:06;1.70;;;1.00;;
52072;SDS011;38074;51.232;6.826;2023-04-06T02:59:21;4.30;;;1.50;;
52072;SDS011;38074;51.232;6.826;2023-04-06T03:06:37;1.73;;;1.00;;
52072;SDS011;38074;51.232;6.826;2023-04-06T03:13:52;1.75;;;1.00;;
52072;SDS011;38074;51.232;6.826;2023-04-06T03:21:08;2.17;;;1.13;;
52072;SDS011;38074;51.232;6.826;2023-04-06T03:28:23;2.90;;;1.30;;
52072;SDS011;38074;51.232;6.826;2023-04-06T03:35:39;2.57;;;0.90;;
52072;SDS011;38074;51.232;6.826;2023-04-06T03:42:54;2.53;;;1.15;;
52072;SDS011;38074;51.232;6.826;2023-04-06T03:50:10;2.07;;;0.93;;
52072;SDS011;38074;51.232;6.826;2023-04-06T03:57:25;1.87;;;1.00;;
52072;SDS011;38074;51.232;6.826;2023-04-06T04:04:42;1.48;;;1.02;;
52072;SDS011;38074;51.232;6.826;2023-04-06T04:11:57;2.03;;;1.20;;
52072;SDS011;38074;51.232;6.826;2023-04-06T04:19:13;2.43;;;1.30;;
52072;SDS011;38074;51.232;6.826;2023-04-06T04:26:28;2.00;;;1.20;;
52072;SDS011;38074;51.232;6.826;2023-04-06T04:33:44;2.10;;;0.90;;
52072;SDS011;38074;51.232;6.826;2023-04-06T04:40:59;2.63;;;0.90;;
52072;SDS011;38074;51.232;6.826;2023-04-06T04:48:15;1.52;;;0.82;;
52072;SDS011;38074;51.232;6.826;2023-04-06T04:55:31;2.43;;;1.20;;
52072;SDS011;38074;51.232;6.826;2023-04-06T05:02:46;2.35;;;1.10;;
52072;SDS011;38074;51.232;6.826;2023-04-06T05:10:02;2.17;;;1.10;;
52072;SDS011;38074;51.232;6.826;2023-04-06T05:17:18;3.08;;;1.30;;
52072;SDS011;38074;51.232;6.826;2023-04-06T05:24:33;2.22;;;1.35;;
52072;SDS011;38074;51.232;6.826;2023-04-06T05:31:50;2.67;;;1.00;;
52072;SDS011;38074;51.232;6.826;2023-04-06T05:39:06;3.55;;;1.10;;
52072;SDS011;38074;51.232;6.826;2023-04-06T05:46:22;4.80;;;1.10;;
52072;SDS011;38074;51.232;6.826;2023-04-06T05:53:38;1.92;;;1.17;;
52072;SDS011;38074;51.232;6.826;2023-04-06T06:00:57;3.00;;;1.20;;
52072;SDS011;38074;51.232;6.826;2023-04-06T06:08:13;3.70;;;1.45;;
52072;SDS011;38074;51.232;6.826;2023-04-06T06:15:28;11.50;;;3.13;;
52072;SDS011;38074;51.232;6.826;2023-04-06T06:22:44;7.97;;;2.80;;
52072;SDS011;38074;51.232;6.826;2023-04-06T06:29:59;6.40;;;3.00;;
52072;SDS011;38074;51.232;6.826;2023-04-06T06:37:15;6.07;;;2.70;;
52072;SDS011;38074;51.232;6.826;2023-04-06T06:44:30;11.53;;;2.97;;
52072;SDS011;38074;51.232;6.826;2023-04-06T06:51:46;9.53;;;2.43;;
52072;SDS011;38074;51.232;6.826;2023-04-06T06:59:01;8.30;;;2.23;;
52072;SDS011;38074;51.232;6.826;2023-04-06T07:06:17;8.68;;;2.70;;
52072;SDS011;38074;51.232;6.826;2023-04-06T07:13:32;7.37;;;2.40;;
52072;SDS011;38074;51.232;6.826;2023-04-06T07:20:48;7.30;;;2.13;;
52072;SDS011;38074;51.232;6.826;2023-04-06T07:28:04;12.63;;;2.33;;
52072;SDS011;38074;51.232;6.826;2023-04-06T07:35:19;7.53;;;1.70;;
52072;SDS011;38074;51.232;6.826;2023-04-06T07:42:35;4.68;;;2.03;;
52072;SDS011;38074;51.232;6.826;2023-04-06T07:49:50;3.47;;;1.20;;
52072;SDS011;38074;51.232;6.826;2023-04-06T07:57:06;3.63;;;1.53;;
52072;SDS011;38074;51.232;6.826;2023-04-06T08:04:21;4.40;;;1.90;;
52072;SDS011;38074;51.232;6.826;2023-04-06T08:11:37;8.13;;;1.90;;
52072;SDS011;38074;51.232;6.826;2023-04-06T08:18:53;3.30;;;1.50;;
52072;SDS011;38074;51.232;6.826;2023-04-06T08:26:08;4.97;;;1.60;;
52072;SDS011;38074;51.232;6.826;2023-04-06T08:33:24;4.15;;;1.55;;
52072;SDS011;38074;51.232;6.826;2023-04-06T08:40:40;3.70;;;1.05;;
52072;SDS011;38074;51.232;6.826;2023-04-06T08:47:55;3.45;;;1.75;;
52072;SDS011;38074;51.232;6.826;2023-04-06T08:55:16;2.35;;;1.30;;
52072;SDS011;38074;51.232;6.826;2023-04-06T09:02:32;2.20;;;1.10;;
52072;SDS011;38074;51.232;6.826;2023-04-06T09:09:48;2.47;;;1.30;;
52072;SDS011;38074;51.232;6.826;2023-04-06T09:17:03;1.90;;;1.20;;
52072;SDS011;38074;51.232;6.826;2023-04-06T09:24:20;4.13;;;1.57;;
52072;SDS011;38074;51.232;6.826;2023-04-06T09:31:40;2.30;;;1.15;;
52072;SDS011;38074;51.232;6.826;2023-04-06T09:38:57;3.87;;;1.13;;
52072;SDS011;38074;51.232;6.826;2023-04-06T09:46:14;2.08;;;1.15;;
52072;SDS011;38074;51.232;6.826;2023-04-06T09:53:31;5.37;;;1.63;;
52072;SDS011;38074;51.232;6.826;2023-04-06T10:01:00;3.20;;;1.60;;
52072;SDS011;38074;51.232;6.826;2023-04-06T10:08:20;5.60;;;1.50;;
52072;SDS011;38074;51.232;6.826;2023-04-06T10:15:42;2.55;;;1.55;;
52072;SDS011;38074;51.232;6.826;2023-04-06T10:23:05;1.90;;;1.23;;
52072;SDS011;38074;51.232;6.826;2023-04-06T10:30:41;3.27;;;1.50;;
52072;SDS011;38074;51.232;6.826;2023-04-06T10:38:04;3.35;;;1.40;;
52072;SDS011;38074;51.232;6.826;2023-04-06T10:45:21;2.03;;;1.30;;
52072;SDS011;38074;51.232;6.826;2023-04-06T10:52:40;2.15;;;1.27;;
52072;SDS011;38074;51.232;6.826;2023-04-06T10:59:56;2.70;;;1.23;;
52072;SDS011;38074;51.232;6.826;2023-04-06T11:07:11;2.60;;;1.10;;
52072;SDS011;38074;51.232;6.826;2023-04-06T11:14:51;2.55;;;1.00;;
52072;SDS011;38074;51.232;6.826;2023-04-06T11:22:08;2.92;;;1.45;;
52072;SDS011;38074;51.232;6.826;2023-04-06T11:29:25;3.67;;;1.20;;
52072;SDS011;38074;51.232;6.826;2023-04-06T11:36:42;2.90;;;1.10;;
52072;SDS011;38074;51.232;6.826;2023-04-06T11:44:00;2.33;;;1.30;;
52072;SDS011;38074;51.232;6.826;2023-04-06T11:51:24;2.08;;;1.05;;
52072;SDS011;38074;51.232;6.826;2023-04-06T11:58:39;2.22;;;1.20;;
52072;SDS011;38074;51.232;6.826;2023-04-06T12:05:55;2.23;;;1.20;;
52072;SDS011;38074;51.232;6.826;2023-04-06T12:13:11;3.07;;;1.30;;
52072;SDS011;38074;51.232;6.826;2023-04-06T12:20:26;3.50;;;1.10;;
52072;SDS011;38074;51.232;6.826;2023-04-06T12:27:42;2.45;;;1.00;;
52072;SDS011;38074;51.232;6.826;2023-04-06T12:34:57;1.90;;;0.80;;
52072;SDS011;38074;51.232;6.826;2023-04-06T12:42:13;2.07;;;1.07;;
52072;SDS011;38074;51.232;6.826;2023-04-06T12:49:29;4.75;;;1.70;;
52072;SDS011;38074;51.232;6.826;2023-04-06T12:56:44;2.47;;;0.80;;
52072;SDS011;38074;51.232;6.826;2023-04-06T13:04:00;2.50;;;1.02;;
52072;SDS011;38074;51.232;6.826;2023-04-06T13:11:16;2.08;;;1.00;;
52072;SDS011;38074;51.232;6.826;2023-04-06T13:18:32;1.40;;;0.90;;
52072;SDS011;38074;51.232;6.826;2023-04-06T13:26:01;2.73;;;0.77;;
52072;SDS011;38074;51.232;6.826;2023-04-06T13:33:18;1.77;;;0.93;;
52072;SDS011;38074;51.232;6.826;2023-04-06T13:40:34;2.92;;;0.82;;
52072;SDS011;38074;51.232;6.826;2023-04-06T13:47:49;1.23;;;0.60;;
52072;SDS011;38074;51.232;6.826;2023-04-06T13:55:05;1.30;;;0.60;;
52072;SDS011;38074;51.232;6.826;2023-04-06T14:02:21;1.77;;;0.75;;
52072;SDS011;38074;51.232;6.826;2023-04-06T14:09:41;1.17;;;0.68;;
52072;SDS011;38074;51.232;6.826;2023-04-06T14:16:57;0.87;;;0.60;;
52072;SDS011;38074;51.232;6.826;2023-04-06T14:24:13;2.07;;;0.60;;
52072;SDS011;38074;51.232;6.826;2023-04-06T14:31:29;2.63;;;0.70;;
52072;SDS011;38074;51.232;6.826;2023-04-06T14:38:44;0.70;;;0.50;;
52072;SDS011;38074;51.232;6.826;2023-04-06T14:53:17;1.35;;;0.40;;
52072;SDS011;38074;51.232;6.826;2023-04-06T15:00:33;1.10;;;0.50;;
52072;SDS011;38074;51.232;6.826;2023-04-06T15:07:48;1.33;;;0.50;;
52072;SDS011;38074;51.232;6.826;2023-04-06T15:15:04;1.90;;;0.70;;
52072;SDS011;38074;51.232;6.826;2023-04-06T15:22:20;3.88;;;0.90;;
52072;SDS011;38074;51.232;6.826;2023-04-06T15:29:35;2.57;;;0.70;;
52072;SDS011;38074;51.232;6.826;2023-04-06T15:36:51;2.70;;;0.70;;
52072;SDS011;38074;51.232;6.826;2023-04-06T15:44:07;1.30;;;0.60;;
52072;SDS011;38074;51.232;6.826;2023-04-06T15:51:23;2.73;;;0.60;;
52072;SDS011;38074;51.232;6.826;2023-04-06T15:58:39;2.73;;;0.60;;
52072;SDS011;38074;51.232;6.826;2023-04-06T16:05:55;2.72;;;1.02;;
52072;SDS011;38074;51.232;6.826;2023-04-06T16:13:10;4.60;;;0.90;;
52072;SDS011;38074;51.232;6.826;2023-04-06T16:20:26;4.95;;;0.70;;
52072;SDS011;38074;51.232;6.826;2023-04-06T16:27:42;7.63;;;1.08;;
52072;SDS011;38074;51.232;6.826;2023-04-06T16:34:57;6.13;;;1.43;;
52072;SDS011;38074;51.232;6.826;2023-04-06T16:42:13;7.40;;;1.50;;
52072;SDS011;38074;51.232;6.826;2023-04-06T16:49:31;8.05;;;1.70;;
52072;SDS011;38074;51.232;6.826;2023-04-06T16:56:46;8.33;;;1.80;;
52072;SDS011;38074;51.232;6.826;2023-04-06T17:04:02;8.07;;;1.30;;
52072;SDS011;38074;51.232;6.826;2023-04-06T17:11:17;8.53;;;1.70;;
52072;SDS011;38074;51.232;6.826;2023-04-06T17:18:33;4.72;;;1.40;;
52072;SDS011;38074;51.232;6.826;2023-04-06T17:25:49;4.47;;;1.30;;
52072;SDS011;38074;51.232;6.826;2023-04-06T17:33:05;3.95;;;1.00;;
52072;SDS011;38074;51.232;6.826;2023-04-06T17:40:20;6.38;;;1.20;;
52072;SDS011;38074;51.232;6.826;2023-04-06T17:47:36;3.77;;;1.10;;
52072;SDS011;38074;51.232;6.826;2023-04-06T17:54:52;4.93;;;0.80;;
52072;SDS011;38074;51.232;6.826;2023-04-06T18:02:07;4.45;;;0.77;;
52072;SDS011;38074;51.232;6.826;2023-04-06T18:09:23;2.23;;;0.80;;
52072;SDS011;38074;51.232;6.826;2023-04-06T18:16:38;1.20;;;0.50;;
52072;SDS011;38074;51.232;6.826;2023-04-06T18:23:54;2.08;;;0.75;;
52072;SDS011;38074;51.232;6.826;2023-04-06T18:31:10;1.77;;;0.68;;
52072;SDS011;38074;51.232;6.826;2023-04-06T18:38:26;1.93;;;0.70;;
52072;SDS011;38074;51.232;6.826;2023-04-06T18:45:41;1.77;;;0.60;;
52072;SDS011;38074;51.232;6.826;2023-04-06T18:52:57;1.15;;;0.57;;
52072;SDS011;38074;51.232;6.826;2023-04-06T19:00:13;1.20;;;0.57;;
52072;SDS011;38074;51.232;6.826;2023-04-06T19:07:30;1.58;;;0.55;;
52072;SDS011;38074;51.232;6.826;2023-04-06T19:14:46;5.57;;;1.50;;
52072;SDS011;38074;51.232;6.826;2023-04-06T19:22:05;7.15;;;1.55;;
52072;SDS011;38074;51.232;6.826;2023-04-06T19:29:21;6.20;;;1.80;;
52072;SDS011;38074;51.232;6.826;2023-04-06T19:36:37;4.75;;;1.30;;
52072;SDS011;38074;51.232;6.826;2023-04-06T19:43:52;5.27;;;1.47;;
52072;SDS011;38074;51.232;6.826;2023-04-06T19:51:08;3.50;;;1.10;;
52072;SDS011;38074;51.232;6.826;2023-04-06T19:58:24;3.77;;;1.07;;
52072;SDS011;38074;51.232;6.826;2023-04-06T20:05:39;3.13;;;1.07;;
52072;SDS011;38074;51.232;6.826;2023-04-06T20:12:55;4.77;;;1.13;;
52072;SDS011;38074;51.232;6.826;2023-04-06T20:20:12;2.75;;;0.70;;
52072;SDS011;38074;51.232;6.826;2023-04-06T20:27:27;2.20;;;0.93;;
52072;SDS011;38074;51.232;6.826;2023-04-06T20:34:43;2.97;;;0.80;;
52072;SDS011;38074;51.232;6.826;2023-04-06T20:41:58;1.73;;;0.80;;
52072;SDS011;38074;51.232;6.826;2023-04-06T20:49:15;2.28;;;0.70;;
52072;SDS011;38074;51.232;6.826;2023-04-06T20:56:32;3.40;;;0.93;;
52072;SDS011;38074;51.232;6.826;2023-04-06T21:03:48;2.28;;;0.60;;
52072;SDS011;38074;51.232;6.826;2023-04-06T21:11:03;1.55;;;0.73;;
52072;SDS011;38074;51.232;6.826;2023-04-06T21:18:20;1.55;;;0.60;;
52072;SDS011;38074;51.232;6.826;2023-04-06T21:25:36;1.20;;;0.55;;
52072;SDS011;38074;51.232;6.826;2023-04-06T21:32:51;2.35;;;0.70;;
52072;SDS011;38074;51.232;6.826;2023-04-06T21:40:07;1.10;;;0.50;;
52072;SDS011;38074;51.232;6.826;2023-04-06T21:47:23;0.68;;;0.40;;
52072;SDS011;38074;51.232;6.826;2023-04-06T21:54:38;1.33;;;0.50;;
52072;SDS011;38074;51.232;6.826;2023-04-06T22:01:54;1.60;;;0.50;;
52072;SDS011;38074;51.232;6.826;2023-04-06T22:09:09;1.43;;;0.50;;
52072;SDS011;38074;51.232;6.826;2023-04-06T22:16:25;1.63;;;0.68;;
52072;SDS011;38074;51.232;6.826;2023-04-06T22:23:41;1.90;;;0.75;;
52072;SDS011;38074;51.232;6.826;2023-04-06T22:30:57;5.90;;;1.00;;
52072;SDS011;38074;51.232;6.826;2023-04-06T22:38:12;3.00;;;0.90;;
52072;SDS011;38074;51.232;6.826;2023-04-06T22:45:28;4.33;;;0.93;;
52072;SDS011;38074;51.232;6.826;2023-04-06T22:52:43;1.50;;;0.57;;
52072;SDS011;38074;51.232;6.826;2023-04-06T22:59:59;4.97;;;1.00;;
52072;SDS011;38074;51.232;6.826;2023-04-06T23:07:14;2.67;;;0.83;;
52072;SDS011;38074;51.232;6.826;2023-04-06T23:14:30;3.00;;;0.70;;
52072;SDS011;38074;51.232;6.826;2023-04-06T23:21:46;3.40;;;0.80;;
52072;SDS011;38074;51.232;6.826;2023-04-06T23:29:01;3.03;;;0.60;;
52072;SDS011;38074;51.232;6.826;2023-04-06T23:36:17;2.23;;;0.60;;
52072;SDS011;38074;51.232;6.826;2023-04-06T23:43:32;2.67;;;0.70;;
52072;SDS011;38074;51.232;6.826;2023-04-06T23:50:48;1.67;;;0.50;;
52072;SDS011;38074;51.232;6.826;2023-04-06T23:58:03;1.60;;;0.80;;
